Aviation Digital Data Service (ADDS)

Output produced by METARs form (0854 UTC 24 March 2019)
found at http://www.aviationweather.gov/metar/data/
 
Forecast for: LEVD (VALLADOLID(MIL/C, ES)
Text: TAF LEVD 240500Z 2406/2506 VRB05KT CAVOK TX21/2415Z TN02/2506Z
Forecast period: 0600 UTC 24 March 2019 to 0600 UTC 25 March 2019
Forecast type: FROM: standard forecast or significant change
Winds: variable direction winds at 6 MPH (5 knots; 2.6 m/s)
Visibility: 6 or more miles 10+ km)
Ceiling: unknown
Clouds: missing
Weather: no significant weather forecast for this period
Text: TEMPO 2406/2506 05012KT
Forecast period: 0600 UTC 24 March 2019 to 0600 UTC 25 March 2019
Forecast type: TEMPORARY: The following changes expected for less than half the time period
Winds: from the NE (50 degrees) at 14 MPH (12 knots; 6.2 m/s)
Visibility: missing
Ceiling: unknown
Clouds: missing
Weather: no significant weather forecast for this period
Text: PROB40
Forecast period: 2000 UTC 24 March 2019 to 0300 UTC 25 March 2019
Forecast type: TEMPORARY: The following changes expected for less than half the time period
Winds: from the NE (50 degrees) at 17 MPH (15 knots; 7.7 m/s)
gusting to 29 MPH (25 knots; 12.9 m/s)
Visibility: missing
Ceiling: unknown
Clouds: missing
Weather: no significant weather forecast for this period